This is the latest recevied weather packets stored in our database for station/object G7GQA-4. If no packets are shown the sender has not sent any weather packets the latest 10 day(s).
| Time | Temp. | Humidity | Pressure | Rain* | Wind** | Luminosity | Snow |
|---|---|---|---|---|---|---|---|
| 1777659924 | 16.11° C | 77% | - | 0 mm | - | 46 W/m² | - |
| 1777659324 | 16.11° C | 76% | - | 0 mm | - | 64 W/m² | - |
| 1777658724 | 16.11° C | 76% | - | 0 mm | - | 80 W/m² | - |
| 1777658125 | 16.67° C | 76% | - | 0 mm | - | 87 W/m² | - |
| 1777657524 | 16.67° C | 74% | - | 0 mm | - | 103 W/m² | - |
| 1777656925 | 16.67° C | 73% | - | 0 mm | - | 109 W/m² | - |
| 1777656324 | 16.67° C | 73% | - | 0 mm | - | 71 W/m² | - |
| 1777655724 | 16.67° C | 72% | - | 0 mm | - | 60 W/m² | - |
| 1777655125 | 16.67° C | 72% | - | 0 mm | - | 63 W/m² | - |
| 1777654524 | 16.67° C | 73% | - | 0 mm | - | 88 W/m² | - |
| 1777653924 | 16.67° C | 75% | - | 0 mm | - | 88 W/m² | - |
| 1777653324 | 16.67° C | 76% | - | 0 mm | - | 102 W/m² | - |
| 1777652724 | 16.67° C | 77% | - | 0 mm | - | 157 W/m² | - |
| 1777652125 | 16.11° C | 77% | - | 0 mm | - | 145 W/m² | - |
| 1777651524 | 16.11° C | 77% | - | 0 mm | - | 124 W/m² | - |
| 1777650924 | 16.11° C | 75% | - | 0 mm | - | 140 W/m² | - |
| 1777650325 | 16.67° C | 74% | - | 0 mm | - | 169 W/m² | - |
| 1777649725 | 16.11° C | 76% | - | 0 mm | - | 166 W/m² | - |
| 1777649125 | 16.11° C | 76% | - | 0 mm | - | 187 W/m² | - |
| 1777648525 | 15.56° C | 76% | - | 0 mm | - | 123 W/m² | - |
| 1777647925 | 15.56° C | 75% | - | 0 mm | - | 71 W/m² | - |
| 1777647325 | 16.67° C | 70% | - | 0 mm | - | 116 W/m² | - |
| 1777646724 | 17.22° C | 64% | - | 0 mm | - | 103 W/m² | - |
| 1777646124 | 18.89° C | 60% | - | 0 mm | - | 192 W/m² | - |
| 1777645524 | 19.44° C | 59% | - | 0 mm | - | 379 W/m² | - |
* Rain latest hour (hover to see other rain measurements)
** Current wind speed in m/s (hover to see current wind gust speed)